Time;durP1;ratioP1;P1;durP2;ratioP2;P2;SDS_P1;SDS_P2;PMS_P1;PMS_P2;Temp;Humidity;BMP_temperature;BMP_pressure;BME280_temperature;BME280_humidity;BME280_pressure;Samples;Min_cycle;Max_cycle;Signal;HPM_P1;HPM_P2
2021/06/24 00:00:59;;;;;;;;;;;14.00;99.90;;;;;;4963534;28;19926;-80
2021/06/24 00:03:26;;;;;;;;;;;14.00;99.90;;;;;;4962205;28;19922;-79
2021/06/24 00:05:54;;;;;;;;;;;14.00;99.90;;;;;;4963732;28;19926;-80
2021/06/24 00:08:21;;;;;;;;;;;14.00;99.90;;;;;;4961529;28;19930;-80
2021/06/24 00:10:48;;;;;;;;;;;14.00;99.90;;;;;;4964438;28;19986;-80
2021/06/24 00:13:15;;;;;;;;;;;14.00;99.90;;;;;;4961399;28;19960;-80
2021/06/24 00:15:42;;;;;;;;;;;14.00;99.90;;;;;;4967539;28;19933;-80
2021/06/24 00:18:08;;;;;;;;;;;14.00;99.90;;;;;;4960521;28;19930;-80
2021/06/24 00:20:36;;;;;;;;;;;14.00;99.90;;;;;;4962296;28;19969;-79
2021/06/24 00:23:03;;;;;;;;;;;14.00;99.90;;;;;;4962835;28;19993;-80
2021/06/24 00:25:30;;;;;;;;;;;14.10;99.90;;;;;;4962381;28;19933;-81
2021/06/24 00:27:57;;;;;;;;;;;14.10;99.90;;;;;;4961260;28;19926;-80
2021/06/24 00:30:24;;;;;;;;;;;14.10;99.90;;;;;;4961414;28;19932;-80
2021/06/24 00:32:51;;;;;;;;;;;14.00;99.90;;;;;;4961454;28;20378;-80
2021/06/24 00:35:18;;;;;;;;;;;14.00;99.90;;;;;;4961500;28;19932;-80
2021/06/24 00:37:47;;;;;;;;;;;14.00;99.90;;;;;;4959441;28;19926;-80
2021/06/24 00:40:14;;;;;;;;;;;14.00;99.90;;;;;;4962544;28;19932;-80
2021/06/24 00:42:41;;;;;;;;;;;14.00;99.90;;;;;;4960215;28;19945;-79
2021/06/24 00:45:09;;;;;;;;;;;14.00;99.90;;;;;;4961191;28;19964;-80
2021/06/24 00:47:36;;;;;;;;;;;14.00;99.90;;;;;;4960783;28;19933;-80
2021/06/24 00:50:04;;;;;;;;;;;13.90;99.90;;;;;;4962608;28;19933;-80
2021/06/24 00:52:30;;;;;;;;;;;13.90;99.90;;;;;;4962680;28;19933;-80
2021/06/24 00:54:57;;;;;;;;;;;13.80;99.90;;;;;;4960411;28;19932;-79
2021/06/24 00:57:24;;;;;;;;;;;13.80;99.90;;;;;;4963346;28;20637;-80
2021/06/24 00:59:51;;;;;;;;;;;13.80;99.90;;;;;;4961450;28;20415;-79
2021/06/24 01:02:19;;;;;;;;;;;13.80;99.90;;;;;;4961007;28;19926;-80
2021/06/24 01:04:45;;;;;;;;;;;13.80;99.90;;;;;;4963396;28;19930;-79
2021/06/24 01:07:12;;;;;;;;;;;13.80;99.90;;;;;;4961993;28;19933;-80
2021/06/24 01:09:38;;;;;;;;;;;13.70;99.90;;;;;;4962508;28;19987;-80
2021/06/24 01:12:08;;;;;;;;;;;13.70;99.90;;;;;;4960795;28;19926;-80
2021/06/24 01:14:35;;;;;;;;;;;13.60;99.90;;;;;;4960555;28;19933;-79
2021/06/24 01:17:02;;;;;;;;;;;13.60;99.90;;;;;;4961108;28;19969;-79
2021/06/24 01:19:29;;;;;;;;;;;13.50;99.90;;;;;;4960145;28;19933;-78
2021/06/24 01:21:58;;;;;;;;;;;13.40;99.90;;;;;;4959818;28;19930;-78
2021/06/24 01:24:25;;;;;;;;;;;13.40;99.90;;;;;;4958916;28;20036;-78
2021/06/24 01:26:52;;;;;;;;;;;13.30;99.90;;;;;;4961255;28;19983;-79
2021/06/24 01:29:18;;;;;;;;;;;13.30;99.90;;;;;;4966250;28;19926;-78
2021/06/24 01:31:45;;;;;;;;;;;13.20;99.90;;;;;;4960617;28;19985;-78
2021/06/24 01:34:12;;;;;;;;;;;13.20;99.90;;;;;;4961153;28;19926;-78
2021/06/24 01:36:39;;;;;;;;;;;13.20;99.90;;;;;;4960355;28;19926;-78
2021/06/24 01:39:08;;;;;;;;;;;13.30;99.90;;;;;;4963148;28;19925;-78
2021/06/24 01:41:35;;;;;;;;;;;13.30;99.90;;;;;;4959720;28;19930;-78
2021/06/24 01:44:02;;;;;;;;;;;13.40;99.90;;;;;;4959417;28;19930;-78
2021/06/24 01:46:29;;;;;;;;;;;13.40;99.90;;;;;;4960207;28;19926;-78
2021/06/24 01:48:56;;;;;;;;;;;13.40;99.90;;;;;;4965596;28;20927;-78
2021/06/24 01:51:22;;;;;;;;;;;13.40;99.90;;;;;;4960675;28;19949;-78
2021/06/24 01:53:50;;;;;;;;;;;13.40;99.90;;;;;;4959659;28;22425;-78
2021/06/24 01:56:17;;;;;;;;;;;13.40;99.90;;;;;;4975898;28;20267;-78
2021/06/24 01:58:43;;;;;;;;;;;13.40;99.90;;;;;;4960308;28;19937;-78
2021/06/24 02:01:10;;;;;;;;;;;13.40;99.90;;;;;;4958351;28;20571;-78
2021/06/24 02:03:37;;;;;;;;;;;13.40;99.90;;;;;;4961762;28;20372;-78
2021/06/24 02:06:05;;;;;;;;;;;13.40;99.90;;;;;;4956082;28;19926;-78
2021/06/24 02:08:35;;;;;;;;;;;13.30;99.90;;;;;;4959656;28;20922;-78
2021/06/24 02:11:02;;;;;;;;;;;13.30;99.90;;;;;;4975815;28;20293;-78
2021/06/24 02:13:28;;;;;;;;;;;13.20;99.90;;;;;;4960221;28;20322;-78
2021/06/24 02:15:55;;;;;;;;;;;13.10;99.90;;;;;;4961504;28;19925;-78
2021/06/24 02:18:22;;;;;;;;;;;13.10;99.90;;;;;;4959820;28;19926;-78
2021/06/24 02:20:49;;;;;;;;;;;13.00;99.90;;;;;;4958497;28;20270;-79
2021/06/24 02:23:15;;;;;;;;;;;12.90;99.90;;;;;;4960347;28;19942;-78
2021/06/24 02:25:42;;;;;;;;;;;12.90;99.90;;;;;;4960653;28;19926;-79
2021/06/24 02:28:08;;;;;;;;;;;13.00;99.90;;;;;;4959535;28;19936;-78
2021/06/24 02:30:35;;;;;;;;;;;13.00;99.90;;;;;;4959660;28;19926;-78
2021/06/24 02:33:04;;;;;;;;;;;13.10;99.90;;;;;;4960799;28;19945;-78
2021/06/24 02:35:33;;;;;;;;;;;13.10;99.90;;;;;;4962120;28;20281;-78
2021/06/24 02:37:59;;;;;;;;;;;13.10;99.90;;;;;;4974889;28;19926;-79
2021/06/24 02:40:26;;;;;;;;;;;13.20;99.90;;;;;;4960596;28;20290;-78
2021/06/24 02:42:53;;;;;;;;;;;13.20;99.90;;;;;;4960939;28;20365;-78
2021/06/24 02:45:20;;;;;;;;;;;13.20;99.90;;;;;;4958324;28;19933;-78
2021/06/24 02:47:46;;;;;;;;;;;13.30;99.90;;;;;;4965601;28;19926;-78
2021/06/24 02:50:14;;;;;;;;;;;13.30;99.90;;;;;;4959392;28;19926;-79
2021/06/24 02:52:40;;;;;;;;;;;13.30;99.90;;;;;;4961598;28;19926;-78
2021/06/24 02:55:07;;;;;;;;;;;13.30;99.90;;;;;;4959023;28;19926;-78
2021/06/24 02:57:34;;;;;;;;;;;13.30;99.90;;;;;;4961085;28;19926;-78
2021/06/24 03:00:03;;;;;;;;;;;13.40;99.90;;;;;;4962559;28;22574;-78
2021/06/24 03:02:29;;;;;;;;;;;13.30;99.90;;;;;;4963263;28;19963;-78
2021/06/24 03:04:56;;;;;;;;;;;13.30;99.90;;;;;;4963598;28;19985;-78
2021/06/24 03:07:23;;;;;;;;;;;13.40;99.90;;;;;;4964557;28;20554;-78
2021/06/24 03:09:49;;;;;;;;;;;13.40;99.90;;;;;;4963984;28;19940;-78
2021/06/24 03:12:16;;;;;;;;;;;13.40;99.90;;;;;;4964269;28;20017;-78
2021/06/24 03:14:43;;;;;;;;;;;13.40;99.90;;;;;;4965034;28;19930;-78
2021/06/24 03:17:09;;;;;;;;;;;13.40;99.90;;;;;;4960147;28;19926;-78
2021/06/24 03:19:36;;;;;;;;;;;13.40;99.90;;;;;;4963438;28;19927;-78
2021/06/24 03:22:03;;;;;;;;;;;13.40;99.90;;;;;;4964135;28;20018;-78
2021/06/24 03:24:29;;;;;;;;;;;13.40;99.90;;;;;;4963142;28;19972;-77
2021/06/24 03:26:56;;;;;;;;;;;13.40;99.90;;;;;;4965542;28;19965;-78
2021/06/24 03:29:23;;;;;;;;;;;13.40;99.90;;;;;;4963782;28;19926;-78
2021/06/24 03:31:49;;;;;;;;;;;13.40;99.90;;;;;;4964027;28;19926;-78
2021/06/24 03:34:16;;;;;;;;;;;13.40;99.90;;;;;;4962600;28;19930;-78
2021/06/24 03:36:43;;;;;;;;;;;13.40;99.90;;;;;;4969927;28;19977;-79
2021/06/24 03:39:12;;;;;;;;;;;13.40;99.90;;;;;;4960717;28;19933;-78
2021/06/24 03:41:39;;;;;;;;;;;13.40;99.90;;;;;;4963787;28;19948;-78
2021/06/24 03:44:06;;;;;;;;;;;13.30;99.90;;;;;;4962089;28;20317;-78
2021/06/24 03:46:33;;;;;;;;;;;13.40;99.90;;;;;;4960864;28;19933;-78
2021/06/24 03:48:59;;;;;;;;;;;13.50;99.90;;;;;;4960297;28;19934;-78
2021/06/24 03:51:26;;;;;;;;;;;13.50;99.90;;;;;;4961357;28;20931;-78
2021/06/24 03:53:53;;;;;;;;;;;13.50;99.90;;;;;;4962114;28;19926;-78
2021/06/24 03:56:19;;;;;;;;;;;13.50;99.90;;;;;;4969738;28;19936;-78
2021/06/24 03:58:46;;;;;;;;;;;13.50;99.90;;;;;;4955340;28;19933;-78
2021/06/24 04:01:12;;;;;;;;;;;13.50;99.90;;;;;;4959615;28;19926;-79
2021/06/24 04:03:39;;;;;;;;;;;13.60;99.90;;;;;;4962609;28;19981;-78
2021/06/24 04:06:06;;;;;;;;;;;13.60;99.90;;;;;;4961219;28;20543;-79
2021/06/24 04:08:33;;;;;;;;;;;13.70;99.90;;;;;;4962324;28;19965;-78
2021/06/24 04:11:02;;;;;;;;;;;13.70;99.90;;;;;;4962476;28;19925;-79
2021/06/24 04:13:28;;;;;;;;;;;13.70;99.90;;;;;;4964538;28;20009;-78
2021/06/24 04:15:55;;;;;;;;;;;13.70;99.90;;;;;;4959320;28;19969;-79
2021/06/24 04:18:22;;;;;;;;;;;13.80;99.90;;;;;;4962672;28;19933;-78
2021/06/24 04:20:49;;;;;;;;;;;13.80;99.90;;;;;;4977588;28;19937;-78
2021/06/24 04:23:16;;;;;;;;;;;13.80;99.90;;;;;;4961570;28;19926;-78
2021/06/24 04:25:42;;;;;;;;;;;13.80;99.90;;;;;;4959874;28;20400;-78
2021/06/24 04:28:09;;;;;;;;;;;13.80;99.90;;;;;;4963430;28;19933;-79
2021/06/24 04:30:35;;;;;;;;;;;13.80;99.90;;;;;;4961148;28;19969;-78
2021/06/24 04:33:02;;;;;;;;;;;13.80;99.90;;;;;;4961718;28;19937;-78
2021/06/24 04:35:29;;;;;;;;;;;13.90;99.90;;;;;;4963190;28;20056;-78
2021/06/24 04:37:56;;;;;;;;;;;13.90;99.90;;;;;;4957303;28;19937;-78
2021/06/24 04:40:23;;;;;;;;;;;14.00;99.90;;;;;;4961712;28;19992;-79
2021/06/24 04:42:50;;;;;;;;;;;14.00;99.90;;;;;;4962475;28;20005;-78
2021/06/24 04:45:16;;;;;;;;;;;14.10;99.90;;;;;;4962014;28;19926;-78
2021/06/24 04:47:43;;;;;;;;;;;14.20;99.90;;;;;;4961456;28;19930;-78
2021/06/24 04:50:10;;;;;;;;;;;14.20;99.90;;;;;;4955690;28;19932;-78
2021/06/24 04:52:37;;;;;;;;;;;14.30;99.90;;;;;;4960086;28;20016;-79
2021/06/24 04:55:04;;;;;;;;;;;14.40;99.90;;;;;;4960988;28;20437;-78
2021/06/24 04:57:31;;;;;;;;;;;14.40;99.90;;;;;;4960598;28;19930;-78
2021/06/24 04:59:57;;;;;;;;;;;14.50;99.90;;;;;;4962001;28;19926;-81
2021/06/24 05:02:24;;;;;;;;;;;14.60;99.90;;;;;;4962655;28;19997;-78
2021/06/24 05:04:51;;;;;;;;;;;14.70;99.90;;;;;;4960764;28;19926;-79
2021/06/24 05:07:18;;;;;;;;;;;14.70;99.90;;;;;;4963022;28;19922;-78
2021/06/24 05:09:45;;;;;;;;;;;14.80;99.90;;;;;;4962078;28;19926;-78
2021/06/24 05:12:11;;;;;;;;;;;14.80;99.90;;;;;;4961870;28;19985;-78
2021/06/24 05:14:39;;;;;;;;;;;14.90;99.90;;;;;;4961668;28;19926;-78
2021/06/24 05:17:06;;;;;;;;;;;15.00;99.90;;;;;;4967508;28;19930;-78
2021/06/24 05:19:34;;;;;;;;;;;15.00;99.90;;;;;;4960770;28;19957;-78
2021/06/24 05:22:00;;;;;;;;;;;15.10;99.90;;;;;;4960598;28;19933;-78
2021/06/24 05:24:27;;;;;;;;;;;15.10;99.90;;;;;;4961969;28;20332;-78
2021/06/24 05:26:56;;;;;;;;;;;15.20;99.90;;;;;;4961924;28;19949;-78
2021/06/24 05:29:23;;;;;;;;;;;15.20;99.90;;;;;;4962023;28;19932;-78
2021/06/24 05:31:49;;;;;;;;;;;15.40;99.90;;;;;;4957613;28;20027;-78
2021/06/24 05:34:16;;;;;;;;;;;15.40;99.90;;;;;;4964292;28;20245;-79
2021/06/24 05:36:42;;;;;;;;;;;15.50;99.90;;;;;;4962504;28;19928;-78
2021/06/24 05:39:09;;;;;;;;;;;15.50;99.90;;;;;;4960905;28;19961;-79
2021/06/24 05:41:36;;;;;;;;;;;15.60;99.90;;;;;;4961378;28;19933;-78
2021/06/24 05:44:03;;;;;;;;;;;15.60;99.90;;;;;;4962482;28;19933;-79
2021/06/24 05:46:29;;;;;;;;;;;15.70;99.90;;;;;;4966766;28;19926;-78
2021/06/24 05:48:56;;;;;;;;;;;15.70;99.90;;;;;;4959759;28;19930;-78
2021/06/24 05:51:23;;;;;;;;;;;15.70;99.90;;;;;;4959353;28;20372;-78
2021/06/24 05:53:51;;;;;;;;;;;15.90;99.90;;;;;;4938642;28;20955;-78
2021/06/24 05:56:20;;;;;;;;;;;15.90;99.90;;;;;;4963053;28;19930;-78
2021/06/24 05:58:47;;;;;;;;;;;16.10;99.90;;;;;;4954291;28;19937;-79
2021/06/24 06:01:15;;;;;;;;;;;16.20;99.90;;;;;;4960479;28;19930;-78
2021/06/24 06:03:42;;;;;;;;;;;16.40;99.90;;;;;;4963566;28;20016;-79
2021/06/24 06:06:08;;;;;;;;;;;16.60;99.90;;;;;;4960477;28;19933;-79
2021/06/24 06:08:35;;;;;;;;;;;16.70;99.90;;;;;;4967835;28;20357;-78
2021/06/24 06:11:02;;;;;;;;;;;16.80;99.90;;;;;;4960594;28;19927;-79
2021/06/24 06:13:28;;;;;;;;;;;16.80;99.90;;;;;;4961774;28;20361;-78
2021/06/24 06:15:55;;;;;;;;;;;16.90;99.90;;;;;;4962171;28;19926;-79
2021/06/24 06:18:26;;;;;;;;;;;16.90;99.90;;;;;;4962872;28;19926;-78
2021/06/24 06:20:54;;;;;;;;;;;17.00;99.90;;;;;;4958947;28;19932;-79
2021/06/24 06:23:21;;;;;;;;;;;17.10;99.90;;;;;;4962019;28;20014;-78
2021/06/24 06:25:48;;;;;;;;;;;17.10;99.90;;;;;;4968960;28;20013;-79
2021/06/24 06:28:16;;;;;;;;;;;17.20;99.90;;;;;;4969750;28;20017;-79
2021/06/24 06:30:46;;;;;;;;;;;17.20;99.90;;;;;;4967094;28;20008;-78
2021/06/24 06:33:13;;;;;;;;;;;17.30;99.90;;;;;;4962922;28;19961;-79
2021/06/24 06:35:40;;;;;;;;;;;17.40;99.90;;;;;;4963908;28;19990;-81
2021/06/24 06:38:07;;;;;;;;;;;17.40;99.90;;;;;;4965664;28;19964;-79
2021/06/24 06:40:33;;;;;;;;;;;17.40;99.90;;;;;;4981061;28;19926;-79
2021/06/24 06:43:03;;;;;;;;;;;17.40;99.90;;;;;;4965739;28;19926;-79
2021/06/24 06:45:31;;;;;;;;;;;17.40;99.90;;;;;;4966039;28;19921;-79
2021/06/24 06:47:59;;;;;;;;;;;17.50;99.90;;;;;;4965206;28;19948;-79
2021/06/24 06:50:26;;;;;;;;;;;17.50;99.90;;;;;;4972354;28;19975;-79
2021/06/24 06:52:53;;;;;;;;;;;17.60;99.90;;;;;;4964938;28;19930;-79
2021/06/24 06:55:20;;;;;;;;;;;17.70;99.90;;;;;;4964924;28;19992;-79
2021/06/24 06:57:46;;;;;;;;;;;17.80;99.90;;;;;;4965290;28;19926;-79
2021/06/24 07:00:14;;;;;;;;;;;17.70;99.90;;;;;;4965953;28;21290;-79
2021/06/24 07:02:40;;;;;;;;;;;17.80;99.90;;;;;;4963048;28;19978;-79
2021/06/24 07:05:07;;;;;;;;;;;17.90;99.90;;;;;;4959969;28;20012;-79
2021/06/24 07:07:34;;;;;;;;;;;18.10;99.90;;;;;;4964208;28;19998;-79
2021/06/24 07:10:02;;;;;;;;;;;18.20;99.90;;;;;;4965936;28;20381;-80
2021/06/24 07:12:28;;;;;;;;;;;18.30;99.90;;;;;;4967104;28;19933;-79
2021/06/24 07:14:55;;;;;;;;;;;18.40;99.90;;;;;;4968440;28;21968;-79
2021/06/24 07:17:22;;;;;;;;;;;18.40;99.90;;;;;;4959807;28;20045;-79
2021/06/24 07:19:49;;;;;;;;;;;18.60;99.90;;;;;;4963300;28;19926;-79
2021/06/24 07:22:15;;;;;;;;;;;18.70;99.90;;;;;;4963254;28;20373;-79
2021/06/24 07:24:42;;;;;;;;;;;18.70;99.90;;;;;;4966060;28;19933;-80
2021/06/24 07:27:10;;;;;;;;;;;18.60;99.90;;;;;;4966967;28;19941;-80
2021/06/24 07:29:36;;;;;;;;;;;18.70;99.90;;;;;;4965874;28;19932;-80
2021/06/24 07:32:03;;;;;;;;;;;18.70;99.90;;;;;;4966765;28;19933;-80
2021/06/24 07:34:30;;;;;;;;;;;18.70;99.90;;;;;;4962267;28;19930;-80
2021/06/24 07:36:56;;;;;;;;;;;18.80;99.90;;;;;;4963644;28;19927;-80
2021/06/24 07:39:23;;;;;;;;;;;19.00;99.90;;;;;;4964422;28;21304;-80
2021/06/24 07:41:50;;;;;;;;;;;19.30;99.90;;;;;;4964879;28;20388;-80
2021/06/24 07:44:16;;;;;;;;;;;19.50;99.90;;;;;;4964269;28;19933;-80
2021/06/24 07:46:44;;;;;;;;;;;19.60;99.90;;;;;;4961984;28;20479;-80
2021/06/24 07:49:11;;;;;;;;;;;19.90;99.10;;;;;;4962990;28;19926;-80
2021/06/24 07:51:40;;;;;;;;;;;20.00;99.30;;;;;;4965233;28;19933;-80
2021/06/24 07:54:07;;;;;;;;;;;20.20;99.40;;;;;;4963988;28;20413;-80
2021/06/24 07:56:34;;;;;;;;;;;20.30;97.70;;;;;;4967408;28;19996;-80
2021/06/24 07:59:01;;;;;;;;;;;20.20;97.20;;;;;;4963883;28;20046;-80
2021/06/24 08:01:27;;;;;;;;;;;20.10;97.40;;;;;;4964799;28;19932;-80
2021/06/24 08:03:54;;;;;;;;;;;19.90;97.10;;;;;;4964170;28;19976;-80
2021/06/24 08:06:21;;;;;;;;;;;19.80;97.50;;;;;;4965630;28;20364;-80
2021/06/24 08:08:47;;;;;;;;;;;19.80;97.00;;;;;;4970199;28;20290;-80
2021/06/24 08:11:14;;;;;;;;;;;19.80;97.70;;;;;;4962722;28;19926;-80
2021/06/24 08:13:41;;;;;;;;;;;19.90;97.60;;;;;;4961100;28;19926;-80
2021/06/24 08:16:07;;;;;;;;;;;20.10;97.30;;;;;;4964526;28;19933;-79
2021/06/24 08:18:34;;;;;;;;;;;20.00;97.10;;;;;;4966419;28;19926;-80
2021/06/24 08:21:04;;;;;;;;;;;20.00;97.40;;;;;;4962897;28;19994;-80
2021/06/24 08:23:31;;;;;;;;;;;20.10;97.70;;;;;;4962675;28;19944;-80
2021/06/24 08:25:58;;;;;;;;;;;20.30;96.90;;;;;;4961874;28;19932;-80
2021/06/24 08:28:25;;;;;;;;;;;20.40;96.90;;;;;;4963166;28;19934;-79
2021/06/24 08:30:54;;;;;;;;;;;20.40;96.50;;;;;;4963706;28;19926;-80
2021/06/24 08:33:21;;;;;;;;;;;20.20;96.10;;;;;;4960587;28;19956;-80
2021/06/24 08:35:48;;;;;;;;;;;20.10;96.30;;;;;;4959364;28;19958;-80
2021/06/24 08:38:15;;;;;;;;;;;20.30;96.50;;;;;;4960602;28;19934;-80
2021/06/24 08:40:46;;;;;;;;;;;20.50;97.30;;;;;;4965223;28;20446;-80
2021/06/24 08:43:13;;;;;;;;;;;20.90;97.40;;;;;;4963127;28;23066;-80
2021/06/24 08:45:40;;;;;;;;;;;21.20;95.80;;;;;;4963701;28;19926;-80
2021/06/24 08:48:09;;;;;;;;;;;21.40;94.90;;;;;;4963803;28;19936;-80
2021/06/24 08:50:36;;;;;;;;;;;21.60;93.60;;;;;;4963495;28;20385;-80
2021/06/24 08:53:03;;;;;;;;;;;21.60;94.10;;;;;;4962229;28;19926;-80
2021/06/24 08:55:36;;;;;;;;;;;21.50;93.80;;;;;;4961757;28;19929;-80
2021/06/24 08:58:03;;;;;;;;;;;21.40;94.20;;;;;;4964789;28;19982;-80
2021/06/24 09:00:30;;;;;;;;;;;21.40;93.30;;;;;;4964283;28;19960;-80
2021/06/24 09:02:59;;;;;;;;;;;21.30;93.10;;;;;;4966265;28;19926;-80
2021/06/24 09:05:45;;;;;;;;;;;21.20;93.40;;;;;;4964209;28;19964;-79
2021/06/24 09:08:12;;;;;;;;;;;21.20;93.70;;;;;;4969527;28;19948;-80
2021/06/24 09:10:38;;;;;;;;;;;21.30;94.30;;;;;;4963920;28;21060;-80
2021/06/24 09:13:05;;;;;;;;;;;21.40;93.30;;;;;;4964042;28;19969;-80
2021/06/24 09:15:36;;;;;;;;;;;21.40;93.40;;;;;;4963361;28;20106;-80
2021/06/24 09:18:03;;;;;;;;;;;21.50;93.40;;;;;;4963147;28;19982;-80
2021/06/24 09:20:38;;;;;;;;;;;21.60;93.60;;;;;;5070391;27;19921;-80
2021/06/24 09:23:08;;;;;;;;;;;21.80;94.30;;;;;;5090438;28;19929;-80
2021/06/24 09:25:39;;;;;;;;;;;22.00;93.40;;;;;;5056311;28;19929;-81
2021/06/24 09:28:06;;;;;;;;;;;22.20;92.50;;;;;;5060319;28;19931;-81
2021/06/24 09:30:35;;;;;;;;;;;22.20;92.70;;;;;;5059146;28;20280;-80
2021/06/24 09:33:13;;;;;;;;;;;22.30;92.30;;;;;;5088732;28;19929;-80
2021/06/24 09:35:41;;;;;;;;;;;22.50;92.50;;;;;;5064729;28;19928;-80
2021/06/24 09:38:14;;;;;;;;;;;22.90;91.20;;;;;;5058021;28;19992;-80
2021/06/24 09:40:48;;;;;;;;;;;22.90;91.10;;;;;;5059461;28;20190;-81
2021/06/24 09:43:24;;;;;;;;;;;23.00;90.90;;;;;;5066519;28;19967;-80
2021/06/24 09:46:02;;;;;;;;;;;23.20;90.20;;;;;;5058531;28;20015;-80
2021/06/24 09:48:37;;;;;;;;;;;23.20;90.00;;;;;;5057573;28;19978;-80
2021/06/24 09:51:23;;;;;;;;;;;23.20;88.80;;;;;;5059237;28;20365;-80
2021/06/24 09:53:57;;;;;;;;;;;23.10;90.30;;;;;;5045273;28;20040;-80
2021/06/24 09:56:24;;;;;;;;;;;23.10;90.90;;;;;;5054071;28;20300;-80
2021/06/24 09:58:50;;;;;;;;;;;23.30;91.00;;;;;;5059756;28;20990;-80
2021/06/24 10:01:29;;;;;;;;;;;23.60;88.20;;;;;;5060243;28;19935;-80
2021/06/24 10:03:58;;;;;;;;;;;23.60;89.20;;;;;;5059407;28;20015;-80
2021/06/24 10:06:25;;;;;;;;;;;23.60;89.20;;;;;;5062476;28;19938;-80
2021/06/24 10:08:53;;;;;;;;;;;23.70;87.90;;;;;;5057308;28;19928;-80
2021/06/24 10:11:21;;;;;;;;;;;23.80;89.10;;;;;;5056780;28;19928;-80
2021/06/24 10:13:48;;;;;;;;;;;24.00;89.80;;;;;;5056549;28;19943;-80
2021/06/24 10:16:15;;;;;;;;;;;24.30;86.30;;;;;;5059041;28;19968;-80
2021/06/24 10:18:44;;;;;;;;;;;24.40;86.10;;;;;;5076799;28;19935;-80
2021/06/24 10:21:11;;;;;;;;;;;24.50;86.40;;;;;;5074446;28;19940;-80
2021/06/24 10:23:38;;;;;;;;;;;24.70;82.20;;;;;;5054123;28;19925;-80
2021/06/24 10:26:05;;;;;;;;;;;24.60;83.10;;;;;;5038218;28;19929;-80
2021/06/24 10:28:32;;;;;;;;;;;24.60;86.10;;;;;;5039155;28;20047;-80
2021/06/24 10:30:58;;;;;;;;;;;24.70;82.00;;;;;;5046742;28;19939;-80
2021/06/24 10:33:26;;;;;;;;;;;24.60;84.10;;;;;;5044549;28;20295;-80
2021/06/24 10:35:53;;;;;;;;;;;24.70;83.30;;;;;;5043677;28;19935;-80
2021/06/24 10:38:21;;;;;;;;;;;24.70;83.30;;;;;;5047892;28;19958;-80
2021/06/24 10:40:55;;;;;;;;;;;24.90;84.70;;;;;;5044575;28;19925;-80
2021/06/24 10:43:24;;;;;;;;;;;25.20;84.60;;;;;;5046683;28;19929;-80
2021/06/24 10:46:09;;;;;;;;;;;25.30;81.10;;;;;;5044285;28;19929;-80
2021/06/24 10:48:36;;;;;;;;;;;25.20;80.80;;;;;;5047678;28;19935;-80
2021/06/24 10:51:06;;;;;;;;;;;25.20;80.20;;;;;;5044769;28;19932;-80
2021/06/24 10:53:33;;;;;;;;;;;25.10;80.10;;;;;;5045696;28;19935;-80
2021/06/24 10:56:00;;;;;;;;;;;25.10;83.30;;;;;;5046134;28;19936;-80
2021/06/24 10:58:27;;;;;;;;;;;25.20;79.40;;;;;;5044983;28;19939;-80
2021/06/24 11:00:56;;;;;;;;;;;25.20;81.30;;;;;;5025208;28;19984;-81
2021/06/24 11:03:36;;;;;;;;;;;25.20;80.50;;;;;;5040515;28;19933;-80
2021/06/24 11:06:09;;;;;;;;;;;25.40;81.70;;;;;;5044424;28;19937;-81
2021/06/24 11:08:36;;;;;;;;;;;25.60;80.60;;;;;;5040845;28;19929;-80
2021/06/24 11:11:07;;;;;;;;;;;25.60;79.70;;;;;;5040506;28;20027;-80
2021/06/24 11:13:34;;;;;;;;;;;25.70;78.60;;;;;;5040367;28;19929;-80
2021/06/24 11:16:05;;;;;;;;;;;25.80;78.50;;;;;;5045453;28;20011;-81
2021/06/24 11:18:31;;;;;;;;;;;25.70;77.50;;;;;;5028939;28;20416;-80
2021/06/24 11:21:02;;;;;;;;;;;25.60;77.20;;;;;;5043538;28;19933;-80
2021/06/24 11:23:34;;;;;;;;;;;25.80;79.20;;;;;;5043529;28;20365;-80
2021/06/24 11:26:14;;;;;;;;;;;25.90;78.90;;;;;;5042170;28;19964;-80
2021/06/24 11:28:55;;;;;;;;;;;26.10;77.30;;;;;;5042439;28;19935;-80
2021/06/24 11:31:39;;;;;;;;;;;26.30;77.70;;;;;;5047311;28;19936;-81
2021/06/24 11:36:37;;;;;;;;;;;26.60;73.70;;;;;;5064444;28;20458;-81
2021/06/24 11:39:03;;;;;;;;;;;26.80;75.40;;;;;;5056403;28;20799;-83
2021/06/24 11:41:30;;;;;;;;;;;27.10;74.60;;;;;;5050663;28;19976;-82
2021/06/24 11:44:06;;;;;;;;;;;27.20;72.40;;;;;;5052395;28;19938;-82
2021/06/24 11:46:34;;;;;;;;;;;27.20;74.40;;;;;;5041888;28;19983;-82
2021/06/24 12:05:29;;;;;;;;;;;26.90;73.20;;;;;;5067931;28;19912;-81
2021/06/24 12:07:57;;;;;;;;;;;27.00;76.30;;;;;;5064096;28;19932;-81
2021/06/24 12:10:23;;;;;;;;;;;27.30;71.90;;;;;;5058348;28;19933;-82
2021/06/24 12:12:50;;;;;;;;;;;27.50;74.10;;;;;;5067794;28;19929;-82
2021/06/24 12:15:18;;;;;;;;;;;27.70;75.80;;;;;;5055034;28;19932;-82
2021/06/24 12:17:45;;;;;;;;;;;28.00;73.50;;;;;;5067785;28;20352;-82
2021/06/24 12:20:19;;;;;;;;;;;28.30;72.10;;;;;;5068553;28;19936;-82
2021/06/24 12:22:49;;;;;;;;;;;28.40;71.40;;;;;;5067724;28;19924;-82
2021/06/24 12:25:19;;;;;;;;;;;28.50;70.20;;;;;;5064158;28;19967;-83
2021/06/24 12:27:47;;;;;;;;;;;28.40;68.40;;;;;;5062015;28;19960;-83
2021/06/24 12:30:41;;;;;;;;;;;28.20;72.30;;;;;;5067855;28;19951;-82
2021/06/24 12:33:09;;;;;;;;;;;28.40;73.40;;;;;;5063928;28;19929;-82
2021/06/24 12:35:40;;;;;;;;;;;29.00;70.20;;;;;;5072104;28;19928;-81
2021/06/24 12:38:07;;;;;;;;;;;29.50;71.00;;;;;;5064243;28;20000;-81
2021/06/24 12:40:36;;;;;;;;;;;30.10;69.80;;;;;;5067028;28;19935;-83
2021/06/24 12:43:04;;;;;;;;;;;30.50;69.00;;;;;;5064094;28;19925;-81
2021/06/24 12:45:44;;;;;;;;;;;30.70;66.90;;;;;;5064528;28;20351;-82
2021/06/24 12:48:30;;;;;;;;;;;30.60;62.60;;;;;;5067368;28;19932;-81
2021/06/24 12:50:57;;;;;;;;;;;30.10;63.70;;;;;;5081696;28;19929;-82
2021/06/24 12:53:28;;;;;;;;;;;29.60;66.70;;;;;;5071462;28;19932;-81
2021/06/24 12:55:55;;;;;;;;;;;29.30;67.30;;;;;;5081829;28;20379;-82
2021/06/24 12:58:24;;;;;;;;;;;29.30;66.20;;;;;;5068284;28;19924;-81
2021/06/24 13:00:59;;;;;;;;;;;29.40;66.90;;;;;;5063534;28;19929;-81
2021/06/24 13:03:36;;;;;;;;;;;29.50;67.70;;;;;;5067668;28;19928;-83
2021/06/24 13:06:11;;;;;;;;;;;29.60;67.30;;;;;;5063256;28;19939;-82
2021/06/24 13:09:00;;;;;;;;;;;29.30;63.20;;;;;;5066660;28;19929;-82
2021/06/24 13:11:40;;;;;;;;;;;28.70;66.50;;;;;;5063598;28;20368;-82
2021/06/24 13:14:14;;;;;;;;;;;28.60;66.20;;;;;;5062322;28;19983;-82
2021/06/24 13:16:47;;;;;;;;;;;28.50;66.20;;;;;;5062348;28;19938;-82
2021/06/24 13:19:36;;;;;;;;;;;28.30;64.90;;;;;;5061805;28;20035;-82
2021/06/24 13:22:02;;;;;;;;;;;28.40;68.80;;;;;;5060789;28;19939;-82
2021/06/24 13:24:44;;;;;;;;;;;29.40;67.60;;;;;;5063926;28;19929;-82
2021/06/24 13:27:12;;;;;;;;;;;30.00;66.50;;;;;;5061600;28;19936;-82
2021/06/24 13:29:39;;;;;;;;;;;30.70;63.70;;;;;;5062997;28;19932;-82
2021/06/24 13:32:09;;;;;;;;;;;31.20;63.30;;;;;;5065616;28;19924;-82
2021/06/24 13:34:36;;;;;;;;;;;31.10;64.60;;;;;;5063849;28;19928;-82
2021/06/24 13:37:19;;;;;;;;;;;31.00;62.40;;;;;;5064747;28;20411;-82
2021/06/24 13:39:46;;;;;;;;;;;30.70;61.00;;;;;;5063200;28;19928;-82
2021/06/24 13:42:13;;;;;;;;;;;30.30;63.40;;;;;;5077677;28;19943;-82
2021/06/24 13:44:43;;;;;;;;;;;30.00;62.50;;;;;;5061302;28;19933;-82
2021/06/24 13:47:10;;;;;;;;;;;30.00;65.70;;;;;;5061953;28;19936;-82
2021/06/24 13:49:36;;;;;;;;;;;30.60;63.20;;;;;;5056404;28;19971;-82
2021/06/24 13:52:05;;;;;;;;;;;30.70;64.50;;;;;;5060549;28;20443;-82
2021/06/24 13:54:32;;;;;;;;;;;31.00;61.80;;;;;;5067608;28;19994;-82
2021/06/24 13:56:59;;;;;;;;;;;30.90;59.30;;;;;;5069205;28;19936;-82
2021/06/24 13:59:26;;;;;;;;;;;31.00;64.60;;;;;;5063993;28;19929;-82
2021/06/24 14:01:53;;;;;;;;;;;32.10;61.50;;;;;;5062437;28;20380;-82
2021/06/24 14:04:20;;;;;;;;;;;33.30;57.80;;;;;;5059317;28;20038;-82
2021/06/24 14:06:47;;;;;;;;;;;34.20;60.10;;;;;;5064119;28;20384;-80
2021/06/24 14:09:15;;;;;;;;;;;35.30;55.10;;;;;;5066649;28;19929;-80
2021/06/24 14:11:43;;;;;;;;;;;35.00;53.10;;;;;;5065741;28;19932;-83
2021/06/24 14:14:10;;;;;;;;;;;34.00;53.00;;;;;;5067794;28;19928;-81
2021/06/24 14:16:37;;;;;;;;;;;33.10;54.40;;;;;;5067412;28;19997;-83
2021/06/24 14:19:16;;;;;;;;;;;32.70;56.00;;;;;;5061434;28;20066;-80
2021/06/24 14:21:43;;;;;;;;;;;32.40;55.80;;;;;;5066419;28;19975;-80
2021/06/24 14:24:10;;;;;;;;;;;31.90;55.90;;;;;;5072854;28;19963;-80
2021/06/24 14:26:37;;;;;;;;;;;31.30;57.70;;;;;;5053697;28;20043;-81
2021/06/24 14:29:06;;;;;;;;;;;30.80;57.00;;;;;;5065266;28;19933;-80
2021/06/24 14:31:33;;;;;;;;;;;30.10;59.30;;;;;;5065944;28;20027;-81
2021/06/24 14:34:00;;;;;;;;;;;30.10;62.10;;;;;;5066615;28;19932;-81
2021/06/24 14:36:26;;;;;;;;;;;30.90;60.60;;;;;;5058786;28;19956;-81
2021/06/24 14:38:53;;;;;;;;;;;31.30;55.50;;;;;;5066470;28;20434;-81
2021/06/24 14:41:20;;;;;;;;;;;30.90;56.30;;;;;;5063934;28;20373;-81